createdAt,value
2022-09-17T09:44:45.110Z,73.28
2022-09-17T09:47:27.631Z,73.61
2022-09-17T09:50:23.943Z,73.32
2022-09-17T09:53:19.142Z,73.28
2022-09-17T09:55:48.132Z,73.48
2022-09-17T09:58:16.196Z,73.05
2022-09-17T10:00:44.879Z,72.83
2022-09-17T10:03:19.816Z,72.39
2022-09-17T10:06:00.022Z,72.61
2022-09-17T10:08:31.605Z,72.77
2022-09-17T10:11:01.900Z,72.58
2022-09-17T10:13:36.246Z,72.87
2022-09-17T10:16:20.218Z,72.86
2022-09-17T10:18:51.659Z,72.68
2022-09-17T10:21:33.274Z,72.62
2022-09-17T10:24:05.273Z,72.53
2022-09-17T10:26:36.976Z,72.22
2022-09-17T10:29:12.471Z,71.72
2022-09-17T10:31:50.517Z,71.60
2022-09-17T10:34:30.584Z,71.41
2022-09-17T10:37:00.589Z,71.65
2022-09-17T10:39:44.307Z,71.70
2022-09-17T10:42:16.371Z,70.71
2022-09-17T10:45:01.092Z,70.61
2022-09-17T10:47:42.567Z,70.92
2022-09-17T10:50:20.178Z,70.93
2022-09-17T10:52:52.982Z,71.22
2022-09-17T10:55:52.405Z,70.93
2022-09-17T10:58:49.064Z,70.01
2022-09-17T11:01:47.736Z,69.31
2022-09-17T11:04:37.447Z,69.14
2022-09-17T11:07:21.005Z,68.14
2022-09-17T11:10:25.757Z,68.18
2022-09-17T11:13:34.804Z,68.57
2022-09-17T11:16:23.400Z,68.71
2022-09-17T11:19:28.233Z,69.01
2022-09-17T11:22:35.388Z,69.12
2022-09-17T11:25:25.951Z,67.16
2022-09-17T11:28:07.809Z,67.15
2022-09-17T11:31:10.639Z,67.42
2022-09-17T11:34:04.587Z,67.10
2022-09-17T11:36:46.134Z,65.89
2022-09-17T11:39:21.875Z,66.13
2022-09-17T11:41:54.304Z,67.07
2022-09-17T11:44:22.634Z,66.35
2022-09-17T11:47:18.477Z,67.10
2022-09-17T11:50:15.765Z,66.53
2022-09-17T11:52:51.936Z,65.24
2022-09-17T11:55:39.094Z,65.66
2022-09-17T11:58:17.532Z,64.88
2022-09-17T12:00:53.091Z,65.79
2022-09-17T12:03:35.106Z,64.86
2022-09-17T12:06:13.732Z,65.57
2022-09-17T12:08:57.644Z,66.03
2022-09-17T12:11:38.508Z,67.08
2022-09-17T12:14:24.177Z,68.10
2022-09-17T12:16:59.042Z,69.17
2022-09-17T12:19:40.591Z,69.46
2022-09-17T12:22:24.294Z,69.09
2022-09-17T12:24:54.853Z,69.23
2022-09-17T12:27:49.436Z,68.92
2022-09-17T12:30:25.985Z,67.60
2022-09-17T12:33:16.888Z,68.15
2022-09-17T12:36:15.995Z,68.27
2022-09-17T12:38:50.822Z,68.58
2022-09-17T12:41:40.736Z,68.90
2022-09-17T12:44:46.812Z,68.64
2022-09-17T12:47:34.047Z,68.25
2022-09-17T12:50:33.138Z,68.69
2022-09-17T12:53:20.883Z,68.28
2022-09-17T12:56:07.778Z,67.52
2022-09-17T12:58:45.192Z,68.47
2022-09-17T13:01:32.179Z,68.01
2022-09-17T13:04:38.363Z,68.07
2022-09-17T13:07:40.090Z,68.32
2022-09-17T13:10:42.542Z,68.34
2022-09-17T13:13:26.622Z,67.07
2022-09-17T13:16:13.404Z,67.50
2022-09-17T13:19:19.846Z,68.18
2022-09-17T13:21:55.797Z,68.22
2022-09-17T13:24:28.884Z,68.08
2022-09-17T13:27:01.502Z,68.37
2022-09-17T13:29:49.528Z,67.96
2022-09-17T13:32:37.189Z,67.93
2022-09-17T13:35:11.888Z,69.19
2022-09-17T13:37:52.851Z,70.41
2022-09-17T13:40:36.398Z,71.22
2022-09-17T13:43:09.071Z,70.89
2022-09-17T13:46:00.599Z,70.13
2022-09-17T13:48:35.733Z,68.81
2022-09-17T13:51:36.739Z,68.73
2022-09-17T13:54:10.412Z,68.65
2022-09-17T13:56:53.394Z,68.91
2022-09-17T13:59:27.630Z,68.68
2022-09-17T14:02:14.196Z,69.30
2022-09-17T14:04:43.172Z,69.63
2022-09-17T14:07:24.397Z,69.40
2022-09-17T14:10:35.472Z,69.68
2022-09-17T14:13:36.974Z,69.76
2022-09-17T14:16:43.753Z,67.86
2022-09-17T14:19:51.386Z,68.04
2022-09-17T14:22:28.260Z,68.03
2022-09-17T14:24:57.496Z,68.21
2022-09-17T14:27:25.981Z,68.07
2022-09-17T14:30:03.567Z,68.32
2022-09-17T14:33:01.347Z,68.38
2022-09-17T14:35:48.417Z,68.23
2022-09-17T14:38:44.760Z,68.11
2022-09-17T14:41:17.362Z,68.00
2022-09-17T14:44:16.671Z,68.04
2022-09-17T14:46:54.237Z,68.32
2022-09-17T14:49:27.356Z,68.35
2022-09-17T14:51:58.350Z,67.90
2022-09-17T14:54:31.227Z,67.43
2022-09-17T14:57:20.770Z,67.85
2022-09-17T14:59:58.057Z,67.72
2022-09-17T15:02:29.851Z,66.10
2022-09-17T15:05:02.403Z,66.53
2022-09-17T15:07:33.322Z,66.86
2022-09-17T15:10:13.660Z,66.90
2022-09-17T15:12:44.591Z,66.96
2022-09-17T15:15:21.609Z,67.84
2022-09-17T15:17:52.796Z,67.52
2022-09-17T15:20:31.748Z,67.19
2022-09-17T15:23:23.982Z,68.34
2022-09-17T15:25:58.231Z,69.92
2022-09-17T15:28:37.250Z,71.23
2022-09-17T15:31:08.778Z,71.58
2022-09-17T15:33:37.996Z,71.93
2022-09-17T15:36:27.594Z,72.45
2022-09-17T15:38:56.885Z,72.34
2022-09-17T15:41:36.491Z,72.36
2022-09-17T15:44:30.134Z,72.42
2022-09-17T15:47:39.116Z,72.40
2022-09-17T15:50:14.415Z,72.43
2022-09-17T15:52:46.014Z,72.61
2022-09-17T15:55:35.276Z,73.00
2022-09-17T15:58:19.845Z,73.24
2022-09-17T16:01:11.171Z,72.95
2022-09-17T16:03:41.091Z,73.24
2022-09-17T16:06:19.114Z,73.39
2022-09-17T16:08:58.775Z,73.82
2022-09-17T16:11:30.534Z,73.69
2022-09-17T16:14:02.146Z,73.49
2022-09-17T16:16:40.632Z,73.86
2022-09-17T16:19:14.056Z,74.78
2022-09-17T16:21:43.604Z,74.93
2022-09-17T16:24:13.897Z,74.68
2022-09-17T16:26:44.234Z,74.37
2022-09-17T16:29:17.136Z,75.13
2022-09-17T16:31:45.714Z,76.10
2022-09-17T16:34:14.636Z,76.69
2022-09-17T16:36:45.342Z,77.67
2022-09-17T16:39:14.895Z,78.63
2022-09-17T16:41:44.234Z,78.80
2022-09-17T16:44:15.082Z,78.83
2022-09-17T16:46:46.084Z,78.82
2022-09-17T16:49:16.301Z,78.41
2022-09-17T16:51:45.769Z,77.92
2022-09-17T16:54:16.177Z,77.04
2022-09-17T16:56:44.583Z,76.53
2022-09-17T16:59:13.154Z,75.94
2022-09-17T17:01:42.310Z,76.03
2022-09-17T17:04:11.008Z,76.06
2022-09-17T17:06:40.373Z,76.02
2022-09-17T17:09:13.579Z,76.24
2022-09-17T17:11:43.774Z,76.44
2022-09-17T17:14:15.125Z,76.64
2022-09-17T17:16:45.681Z,77.05
2022-09-17T17:19:14.582Z,77.16
2022-09-17T17:21:46.974Z,77.09
2022-09-17T17:24:16.105Z,77.06
2022-09-17T17:26:45.061Z,77.03
2022-09-17T17:29:13.955Z,77.23
2022-09-17T17:31:44.108Z,77.11
2022-09-17T17:34:12.762Z,77.34
2022-09-17T17:36:41.477Z,77.37
2022-09-17T17:39:10.591Z,77.58
2022-09-17T17:41:40.957Z,77.66
2022-09-17T17:44:13.377Z,77.75
2022-09-17T17:46:44.512Z,77.89
2022-09-17T17:49:13.310Z,77.83
2022-09-17T17:51:41.683Z,78.00
2022-09-17T17:54:10.170Z,77.91
2022-09-17T17:56:38.720Z,77.95
2022-09-17T17:59:07.108Z,78.07
2022-09-17T18:01:35.699Z,78.27
2022-09-17T18:04:08.322Z,78.41
2022-09-17T18:06:37.167Z,78.30
2022-09-17T18:09:06.438Z,78.01
2022-09-17T18:11:35.577Z,78.03
2022-09-17T18:14:04.229Z,77.89
2022-09-17T18:16:32.875Z,77.82
2022-09-17T18:19:02.095Z,77.73
2022-09-17T18:21:30.380Z,77.53
2022-09-17T18:24:00.513Z,77.66
2022-09-17T18:26:30.612Z,77.53
2022-09-17T18:29:00.713Z,77.59
2022-09-17T18:31:34.483Z,77.64
2022-09-17T18:34:07.222Z,77.91
2022-09-17T18:36:47.545Z,78.03
2022-09-17T18:42:12.948Z,78.11
2022-09-17T18:44:42.702Z,77.82
2022-09-17T18:47:13.596Z,77.80
2022-09-17T18:49:43.613Z,77.68
2022-09-17T18:52:14.762Z,77.46
2022-09-17T18:54:46.429Z,77.36
2022-09-17T18:57:17.276Z,77.40
2022-09-17T18:59:50.078Z,77.40
2022-09-17T19:02:20.790Z,77.28
2022-09-17T19:04:50.994Z,77.16
2022-09-17T19:07:20.317Z,77.20
2022-09-17T19:09:52.050Z,77.14
2022-09-17T19:12:23.078Z,77.03
2022-09-17T19:14:56.196Z,77.03
2022-09-17T19:17:30.072Z,76.94
2022-09-17T19:20:03.176Z,76.85
2022-09-17T19:22:35.311Z,76.69
2022-09-17T19:25:06.056Z,76.59
2022-09-17T19:27:34.621Z,76.33
2022-09-17T19:30:03.746Z,76.18
2022-09-17T19:32:35.465Z,76.08
2022-09-17T19:35:10.147Z,75.96
2022-09-17T19:37:43.507Z,75.84
2022-09-17T19:40:14.119Z,75.82
2022-09-17T19:42:43.903Z,75.77
2022-09-17T19:45:13.674Z,75.72
2022-09-17T19:47:42.853Z,75.61
2022-09-17T19:50:12.381Z,75.70
2022-09-17T19:52:41.455Z,75.70
2022-09-17T19:55:13.470Z,75.62
2022-09-17T19:57:43.011Z,75.63
2022-09-17T20:00:12.815Z,75.73
2022-09-17T20:02:44.356Z,75.81
2022-09-17T20:05:13.600Z,75.66
2022-09-17T20:07:44.768Z,75.66
2022-09-17T20:10:15.985Z,75.68
2022-09-17T20:12:45.894Z,75.70
2022-09-17T20:15:14.655Z,75.70
2022-09-17T20:17:43.174Z,75.66
2022-09-17T20:20:13.570Z,75.57
2022-09-17T20:22:42.795Z,75.63
2022-09-17T20:25:11.473Z,75.59
2022-09-17T20:27:40.276Z,75.64
2022-09-17T20:30:09.788Z,75.58
2022-09-17T20:32:43.165Z,75.53
2022-09-17T20:35:18.709Z,75.51
2022-09-17T20:38:44.908Z,75.47
2022-09-17T20:40:44.764Z,75.39
2022-09-17T20:43:16.900Z,75.45
2022-09-17T20:45:56.417Z,75.46
2022-09-17T20:48:27.313Z,75.38
2022-09-17T20:50:59.701Z,75.43
2022-09-17T20:53:30.452Z,75.33
2022-09-17T20:56:01.977Z,75.38
2022-09-17T20:58:34.756Z,75.32
2022-09-17T21:01:22.197Z,75.31
2022-09-17T21:03:54.218Z,75.34
2022-09-17T21:06:25.097Z,75.48
2022-09-17T21:08:54.900Z,75.48
2022-09-17T21:11:25.310Z,75.58
2022-09-17T21:13:55.639Z,75.48
2022-09-17T21:16:25.136Z,75.45
2022-09-17T21:18:58.583Z,75.36
2022-09-17T21:21:28.939Z,75.24
2022-09-17T21:24:03.313Z,75.37
2022-09-17T21:26:33.281Z,75.44
2022-09-17T21:29:03.029Z,75.45
2022-09-17T21:31:36.944Z,75.34
2022-09-17T21:34:08.880Z,75.32
2022-09-17T21:36:39.520Z,75.24
2022-09-17T21:39:16.462Z,75.33
2022-09-17T21:41:47.878Z,75.40
2022-09-17T21:44:16.591Z,75.50
2022-09-17T21:46:45.959Z,75.59
2022-09-17T21:49:17.878Z,75.61
2022-09-17T21:51:46.259Z,75.65
2022-09-17T21:54:17.792Z,75.60
2022-09-17T21:56:48.084Z,75.62
2022-09-17T21:59:17.696Z,75.56
2022-09-17T22:01:50.908Z,75.67
2022-09-17T22:04:23.642Z,75.74
2022-09-17T22:06:53.682Z,75.71
2022-09-17T22:09:24.717Z,75.69
2022-09-17T22:11:54.028Z,75.73
2022-09-17T22:14:24.981Z,75.78
2022-09-17T22:16:57.060Z,75.83
2022-09-17T22:19:26.331Z,75.83
2022-09-17T22:21:56.156Z,75.97
2022-09-17T22:24:26.337Z,75.86
2022-09-17T22:26:58.152Z,76.00
2022-09-17T22:29:31.752Z,76.03
2022-09-17T22:32:00.124Z,76.07
2022-09-17T22:34:29.952Z,76.10
2022-09-17T22:36:59.242Z,76.05
2022-09-17T22:39:27.431Z,76.01
2022-09-17T22:41:56.058Z,75.94
2022-09-17T22:44:24.189Z,75.96
2022-09-17T22:46:52.779Z,76.00
2022-09-17T22:49:21.289Z,76.12
2022-09-17T22:51:49.461Z,76.13
2022-09-17T22:54:18.963Z,76.29
2022-09-17T22:56:48.297Z,76.31
2022-09-17T22:59:17.780Z,76.34
2022-09-17T23:01:46.053Z,76.33
2022-09-17T23:04:14.396Z,76.24
2022-09-17T23:06:42.614Z,76.20
2022-09-17T23:09:13.871Z,75.96
2022-09-17T23:11:42.326Z,76.00
2022-09-17T23:14:12.965Z,75.86
2022-09-17T23:16:45.653Z,75.97
2022-09-17T23:19:17.866Z,76.02
2022-09-17T23:21:46.185Z,76.03
2022-09-17T23:24:20.523Z,76.14
2022-09-17T23:26:49.916Z,76.12
2022-09-17T23:29:19.378Z,76.14
2022-09-17T23:31:47.696Z,76.12
2022-09-17T23:34:15.973Z,76.04
2022-09-17T23:36:44.140Z,76.04
2022-09-17T23:39:12.657Z,75.87
2022-09-17T23:41:44.955Z,75.75
2022-09-17T23:44:15.690Z,75.62
2022-09-17T23:46:45.894Z,75.48
2022-09-17T23:49:15.559Z,75.39
2022-09-17T23:51:44.243Z,75.39
2022-09-17T23:54:12.421Z,75.47
2022-09-17T23:56:41.334Z,75.31
2022-09-17T23:59:11.738Z,75.46
